ウィントフック の空港の天気 - METARとTAF

ウィンドフック・ホセア・クタコ国際空港 ( FYWH / WDH ) - ナミビア ウィントフック
飛行場実況気象(Metar)
観測時間07/04 20:00 WAT (07/04 18:00 UTC)
風向・風速北西 3m/s
視程10km以上
天気現象
なし
気温11℃
湿度47%
気圧1027hPa
METARFYWH 041800Z 31006KT CAVOK 11/00 Q1027 NOSIG
過去の天気等 Google飛行場航空写真 Wunderground天気予報

過去48時間のMETAR

飛行場予報(TAF)
発表時間: 7/05 00:00 WAT (7/04 22:00 UTC)
予報対象時間: 5日2時 WAT ~ 6日2時 WAT
風向・風速西南西 2m/s
視程10km以上
なし
5日9時 WAT ~ 5日11時 WAT に徐々に
風向・風速北北西 8m/s
TAF FYWH 042200Z 0500/0600 25004KT CAVOK
BECMG 0507/0509 34015KT